createdAt,value
2019-04-29T00:01:28.242Z,8.88
2019-04-29T00:06:33.770Z,8.43
2019-04-29T00:11:36.400Z,6.45
2019-04-29T00:16:48.278Z,7.75
2019-04-29T00:21:51.130Z,10.72
2019-04-29T00:26:53.727Z,10.65
2019-04-29T00:31:58.514Z,8.88
2019-04-29T00:37:14.478Z,10.13
2019-04-29T00:42:27.437Z,9.08
2019-04-29T00:47:31.287Z,9.08
2019-04-29T00:52:36.960Z,10.20
2019-04-29T00:57:42.575Z,10.30
2019-04-29T01:02:46.800Z,14.75
2019-04-29T01:07:49.743Z,8.40
2019-04-29T01:12:54.512Z,10.38
2019-04-29T01:18:04.297Z,13.08
2019-04-29T01:23:14.555Z,12.18
2019-04-29T01:28:27.817Z,15.05
2019-04-29T01:33:39.796Z,9.45
2019-04-29T01:38:52.208Z,10.15
2019-04-29T01:44:26.659Z,9.48
2019-04-29T01:49:38.401Z,12.82
2019-04-29T01:54:51.851Z,12.73
2019-04-29T02:00:06.755Z,10.65
2019-04-29T02:05:18.085Z,11.75
2019-04-29T02:15:47.379Z,10.80
2019-04-29T02:20:57.323Z,11.57
2019-04-29T02:26:10.645Z,15.28
2019-04-29T02:31:33.650Z,14.60
2019-04-29T02:36:55.722Z,12.65
2019-04-29T02:42:20.311Z,16.75
2019-04-29T02:47:26.406Z,13.20
2019-04-29T02:53:10.650Z,12.13
2019-04-29T02:58:58.625Z,9.43
2019-04-29T03:04:36.579Z,14.10
2019-04-29T03:10:03.816Z,10.75
2019-04-29T03:15:26.053Z,11.30
2019-04-29T03:21:12.679Z,12.73
2019-04-29T03:26:35.714Z,10.05
2019-04-29T03:31:59.185Z,10.28
2019-04-29T03:38:01.185Z,24.55
2019-04-29T03:43:02.859Z,7.72
2019-04-29T03:48:06.136Z,9.38
2019-04-29T03:53:19.246Z,13.05
2019-04-29T03:58:30.653Z,10.00
2019-04-29T04:03:38.223Z,9.55
2019-04-29T04:08:44.590Z,11.05
2019-04-29T04:13:47.231Z,9.80
2019-04-29T04:18:51.437Z,12.50
2019-04-29T04:23:57.964Z,13.13
2019-04-29T04:28:58.189Z,11.35
2019-04-29T04:34:00.510Z,12.65
2019-04-29T04:39:10.106Z,15.95
2019-04-29T04:44:44.285Z,15.35
2019-04-29T04:50:01.045Z,13.45
2019-04-29T04:55:00.724Z,10.48
2019-04-29T05:00:06.750Z,13.48
2019-04-29T05:05:09.263Z,12.15
2019-04-29T05:10:19.553Z,12.98
2019-04-29T05:15:22.101Z,13.88
2019-04-29T05:20:24.641Z,10.98
2019-04-29T05:25:31.218Z,11.57
2019-04-29T05:30:33.403Z,12.45
2019-04-29T05:35:48.746Z,11.68
2019-04-29T05:40:51.946Z,13.68
2019-04-29T05:46:24.567Z,13.48
2019-04-29T05:51:47.725Z,16.10
2019-04-29T05:56:59.257Z,16.57
2019-04-29T06:02:33.678Z,14.78
2019-04-29T06:07:41.754Z,12.18
2019-04-29T06:12:47.798Z,15.38
2019-04-29T06:17:54.952Z,15.35
2019-04-29T06:23:19.050Z,15.70
2019-04-29T06:28:46.888Z,13.32
2019-04-29T06:34:03.200Z,16.52
2019-04-29T06:39:13.398Z,11.73
2019-04-29T06:44:40.394Z,16.55
2019-04-29T06:50:11.598Z,17.35
2019-04-29T06:55:25.775Z,17.10
2019-04-29T07:00:42.560Z,13.98
2019-04-29T07:06:27.791Z,14.93
2019-04-29T07:12:02.078Z,18.17
2019-04-29T07:17:28.049Z,11.28
2019-04-29T07:23:02.997Z,14.78
2019-04-29T07:28:20.431Z,13.43
2019-04-29T07:33:44.318Z,13.83
2019-04-29T07:39:50.065Z,12.53
2019-04-29T07:51:41.239Z,14.10
2019-04-29T07:57:12.481Z,15.35
2019-04-29T08:03:15.430Z,14.47
2019-04-29T08:09:20.630Z,18.40
2019-04-29T08:15:31.746Z,16.00
2019-04-29T08:21:15.989Z,15.05
2019-04-29T08:27:15.861Z,11.43
2019-04-29T08:39:11.871Z,14.10
2019-04-29T09:10:28.373Z,12.35
2019-04-29T09:28:27.145Z,13.20
2019-04-29T09:34:26.802Z,11.35
2019-04-29T09:40:35.784Z,11.68
2019-04-29T09:57:36.139Z,9.25
2019-04-29T10:21:36.106Z,12.98
2019-04-29T10:27:00.203Z,11.45
2019-04-29T10:32:54.787Z,13.98
2019-04-29T10:38:33.087Z,12.10
2019-04-29T10:44:19.661Z,12.43
2019-04-29T10:50:24.764Z,7.87
2019-04-29T10:56:05.547Z,11.50
2019-04-29T11:02:13.654Z,7.58
2019-04-29T11:19:10.977Z,12.18
2019-04-29T11:25:23.991Z,7.95
2019-04-29T11:31:14.395Z,5.10
2019-04-29T11:37:13.764Z,7.25
2019-04-29T11:42:43.210Z,4.78
2019-04-29T11:48:22.871Z,6.20
2019-04-29T12:00:25.742Z,8.53
2019-04-29T12:05:46.153Z,7.10
2019-04-29T12:17:33.168Z,4.95
2019-04-29T12:23:15.760Z,7.47
2019-04-29T12:28:56.174Z,3.98
2019-04-29T12:34:39.257Z,6.97
2019-04-29T12:40:19.462Z,4.03
2019-04-29T12:46:17.686Z,5.65
2019-04-29T13:29:35.812Z,6.62
2019-04-29T14:08:14.762Z,7.62
2019-04-29T14:18:35.075Z,5.80
2019-04-29T15:05:34.524Z,6.65
2019-04-29T15:17:44.701Z,8.78
2019-04-29T15:42:59.431Z,7.15
2019-04-29T15:54:35.558Z,10.25
2019-04-29T16:06:19.286Z,7.42
2019-04-29T16:11:36.630Z,8.95
2019-04-29T16:16:52.215Z,12.15
2019-04-29T16:22:19.791Z,8.50
2019-04-29T16:27:48.924Z,8.48
2019-04-29T16:33:13.910Z,8.08
2019-04-29T16:38:31.313Z,8.03
2019-04-29T16:44:01.675Z,9.03
2019-04-29T16:49:19.246Z,11.43
2019-04-29T16:54:33.912Z,11.00
2019-04-29T16:59:54.000Z,14.15
2019-04-29T17:05:16.069Z,9.83
2019-04-29T17:10:50.063Z,8.30
2019-04-29T17:16:03.017Z,8.98
2019-04-29T17:21:24.695Z,13.75
2019-04-29T17:27:19.552Z,10.43
2019-04-29T17:33:27.778Z,8.38
2019-04-29T17:35:13.886Z,10.78
2019-04-29T17:38:50.827Z,12.80
2019-04-29T17:44:34.301Z,7.70
2019-04-29T17:50:29.946Z,10.53
2019-04-29T17:56:06.398Z,8.73
2019-04-29T18:01:36.813Z,13.62
2019-04-29T18:12:27.503Z,11.00
2019-04-29T18:18:00.280Z,11.20
2019-04-29T18:23:11.211Z,11.40
2019-04-29T18:28:32.790Z,14.00
2019-04-29T19:29:06.270Z,14.60
2019-04-29T19:40:42.831Z,12.53
2019-04-29T19:46:59.007Z,14.78
2019-04-29T19:52:45.792Z,15.95
2019-04-29T19:57:59.592Z,18.00
2019-04-29T20:45:35.345Z,19.70
2019-04-29T20:50:40.819Z,23.83
2019-04-29T20:55:49.791Z,24.67
2019-04-29T21:01:02.823Z,29.72
2019-04-29T21:06:03.149Z,28.20
2019-04-29T21:11:16.134Z,28.83
2019-04-29T21:16:29.142Z,30.10
2019-04-29T21:21:36.769Z,32.93
2019-04-29T21:27:09.338Z,37.35
2019-04-29T21:32:45.488Z,36.17
2019-04-29T21:38:47.039Z,37.03
2019-04-29T21:44:14.999Z,34.67
2019-04-29T21:49:45.307Z,38.80
2019-04-29T21:54:54.606Z,36.08
2019-04-29T22:00:15.632Z,33.45
2019-04-29T22:05:36.281Z,31.05
2019-04-29T22:11:07.441Z,36.03
2019-04-29T22:16:28.641Z,31.62
2019-04-29T22:21:57.191Z,29.75
2019-04-29T22:27:16.190Z,32.98
2019-04-29T22:32:58.054Z,31.82
2019-04-29T22:38:18.706Z,33.02
2019-04-29T22:43:48.277Z,31.80
2019-04-29T22:49:06.797Z,31.62
2019-04-29T22:54:17.691Z,32.00
2019-04-29T22:59:22.990Z,32.33
2019-04-29T23:04:42.206Z,34.70
2019-04-29T23:09:57.530Z,31.75
2019-04-29T23:15:10.057Z,33.02
2019-04-29T23:20:45.546Z,30.85
2019-04-29T23:25:59.866Z,31.40
2019-04-29T23:31:13.627Z,37.28
2019-04-29T23:36:31.728Z,32.08
